createdAt,value
2018-05-08T00:01:37.065Z,15.87
2018-05-08T00:04:05.606Z,16.38
2018-05-08T00:06:34.166Z,16.44
2018-05-08T00:09:03.151Z,16.36
2018-05-08T00:11:31.607Z,16.53
2018-05-08T00:14:00.105Z,16.12
2018-05-08T00:16:28.527Z,16.23
2018-05-08T00:18:57.893Z,16.13
2018-05-08T00:21:26.391Z,15.78
2018-05-08T00:23:54.882Z,16.01
2018-05-08T00:26:23.621Z,15.85
2018-05-08T00:28:52.314Z,15.90
2018-05-08T00:31:20.835Z,15.90
2018-05-08T00:33:49.333Z,15.81
2018-05-08T00:36:17.779Z,16.10
2018-05-08T00:38:46.249Z,15.82
2018-05-08T00:41:14.746Z,15.33
2018-05-08T00:43:44.186Z,15.23
2018-05-08T00:46:12.642Z,15.19
2018-05-08T00:48:41.102Z,15.39
2018-05-08T00:51:09.547Z,15.62
2018-05-08T00:53:38.176Z,15.41
2018-05-08T00:56:07.435Z,15.24
2018-05-08T00:58:35.932Z,15.37
2018-05-08T01:01:04.395Z,15.68
2018-05-08T01:03:33.638Z,15.33
2018-05-08T01:06:02.859Z,15.53
2018-05-08T01:08:32.082Z,15.28
2018-05-08T01:11:01.323Z,15.27
2018-05-08T01:13:29.831Z,15.31
2018-05-08T01:16:29.956Z,15.19
2018-05-08T01:18:58.420Z,15.64
2018-05-08T01:21:26.835Z,15.27
2018-05-08T01:23:55.318Z,14.82
2018-05-08T01:26:23.747Z,14.80
2018-05-08T01:28:52.228Z,15.16
2018-05-08T01:31:20.712Z,15.01
2018-05-08T01:33:49.184Z,14.91
2018-05-08T01:36:17.614Z,14.75
2018-05-08T01:38:46.843Z,14.56
2018-05-08T01:41:16.035Z,14.78
2018-05-08T01:43:44.497Z,14.57
2018-05-08T01:46:12.977Z,14.24
2018-05-08T01:48:42.208Z,14.55
2018-05-08T01:51:10.721Z,14.16
2018-05-08T01:53:39.475Z,14.39
2018-05-08T01:56:07.922Z,14.33
2018-05-08T01:58:36.421Z,14.83
2018-05-08T02:01:05.687Z,15.35
2018-05-08T02:03:34.138Z,15.69
2018-05-08T02:06:02.635Z,15.80
2018-05-08T02:08:31.131Z,15.50
2018-05-08T02:10:59.817Z,15.10
2018-05-08T02:13:28.293Z,14.28
2018-05-08T02:15:56.739Z,14.93
2018-05-08T02:18:25.245Z,14.69
2018-05-08T02:20:53.660Z,14.73
2018-05-08T02:23:22.119Z,15.09
2018-05-08T02:25:50.592Z,15.22
2018-05-08T02:28:19.078Z,15.52
2018-05-08T02:30:47.553Z,15.06
2018-05-08T02:33:16.025Z,14.82
2018-05-08T02:35:45.233Z,14.83
2018-05-08T02:38:13.699Z,14.39
2018-05-08T02:40:42.144Z,14.17
2018-05-08T02:43:10.606Z,14.24
2018-05-08T02:45:39.044Z,14.07
2018-05-08T02:48:07.543Z,14.07
2018-05-08T02:50:35.987Z,14.10
2018-05-08T02:53:05.216Z,14.12
2018-05-08T02:55:34.398Z,14.30
2018-05-08T02:58:02.883Z,13.79
2018-05-08T03:00:31.357Z,13.62
2018-05-08T03:02:59.803Z,13.68
2018-05-08T03:05:28.259Z,13.40
2018-05-08T03:07:57.605Z,13.83
2018-05-08T03:10:26.024Z,13.53
2018-05-08T03:12:54.478Z,13.93
2018-05-08T03:15:22.910Z,13.62
2018-05-08T03:17:51.345Z,13.57
2018-05-08T03:20:19.744Z,13.77
2018-05-08T03:22:48.205Z,14.14
2018-05-08T03:25:17.436Z,14.05
2018-05-08T03:27:46.675Z,13.91
2018-05-08T03:30:15.172Z,14.01
2018-05-08T03:32:44.429Z,14.02
2018-05-08T03:35:12.892Z,13.33
2018-05-08T03:37:44.110Z,13.48
2018-05-08T03:40:12.572Z,13.10
2018-05-08T03:42:41.042Z,13.28
2018-05-08T03:45:09.466Z,12.92
2018-05-08T03:47:37.901Z,13.03
2018-05-08T03:50:06.306Z,13.25
2018-05-08T03:52:34.778Z,13.22
2018-05-08T03:55:03.225Z,12.87
2018-05-08T03:57:31.911Z,13.47
2018-05-08T04:00:00.350Z,13.26
2018-05-08T04:06:10.210Z,13.37
2018-05-08T04:08:38.684Z,13.41
2018-05-08T04:11:07.778Z,13.25
2018-05-08T04:13:36.285Z,13.51
2018-05-08T04:16:05.513Z,13.49
2018-05-08T04:18:34.040Z,13.78
2018-05-08T04:21:02.531Z,13.74
2018-05-08T04:23:31.722Z,13.79
2018-05-08T04:26:00.193Z,13.25
2018-05-08T04:28:28.661Z,13.04
2018-05-08T04:30:57.928Z,13.20
2018-05-08T04:33:26.410Z,13.15
2018-05-08T04:35:55.614Z,13.46
2018-05-08T04:38:24.131Z,13.40
2018-05-08T04:40:52.824Z,13.54
2018-05-08T04:43:21.361Z,13.56
2018-05-08T04:45:50.045Z,13.63
2018-05-08T04:48:18.531Z,13.86
2018-05-08T04:50:47.014Z,13.27
2018-05-08T04:53:15.473Z,13.72
2018-05-08T04:55:43.926Z,13.70
2018-05-08T04:58:12.424Z,13.71
2018-05-08T05:00:40.913Z,13.60
2018-05-08T05:03:09.418Z,13.76
2018-05-08T05:05:37.934Z,13.77
2018-05-08T05:08:06.390Z,13.88
2018-05-08T05:10:34.886Z,13.69
2018-05-08T05:13:03.669Z,13.95
2018-05-08T05:15:32.127Z,13.90
2018-05-08T05:18:00.592Z,13.94
2018-05-08T05:20:29.009Z,14.05
2018-05-08T05:22:57.491Z,14.03
2018-05-08T05:25:26.025Z,14.14
2018-05-08T05:27:54.468Z,14.07
2018-05-08T05:30:30.631Z,14.07
2018-05-08T05:32:59.848Z,14.32
2018-05-08T05:35:29.326Z,14.65
2018-05-08T05:37:57.814Z,14.80
2018-05-08T05:40:26.236Z,14.78
2018-05-08T05:42:54.700Z,14.65
2018-05-08T05:45:24.143Z,14.72
2018-05-08T05:47:52.606Z,14.77
2018-05-08T05:50:21.022Z,14.68
2018-05-08T05:52:49.463Z,14.66
2018-05-08T05:55:17.897Z,14.79
2018-05-08T05:57:46.351Z,14.89
2018-05-08T06:00:15.532Z,14.89
2018-05-08T06:02:44.002Z,14.86
2018-05-08T06:05:12.416Z,14.92
2018-05-08T06:07:40.897Z,14.91
2018-05-08T06:10:10.129Z,14.97
2018-05-08T06:12:38.714Z,15.06
2018-05-08T06:15:07.918Z,15.13
2018-05-08T06:17:36.435Z,15.19
2018-05-08T06:20:04.852Z,15.30
2018-05-08T06:22:33.321Z,15.38
2018-05-08T06:25:01.761Z,15.52
2018-05-08T06:27:30.232Z,15.53
2018-05-08T06:29:58.650Z,15.59
2018-05-08T06:32:27.102Z,15.63
2018-05-08T06:34:55.542Z,15.85
2018-05-08T06:37:23.992Z,16.01
2018-05-08T06:39:53.174Z,16.03
2018-05-08T06:42:21.624Z,16.07
2018-05-08T06:44:50.824Z,16.19
2018-05-08T06:47:19.293Z,16.40
2018-05-08T06:49:47.721Z,16.60
2018-05-08T06:52:16.170Z,16.64
2018-05-08T06:54:45.370Z,16.80
2018-05-08T06:57:13.797Z,16.92
2018-05-08T06:59:42.968Z,16.85
2018-05-08T07:02:11.380Z,16.90
2018-05-08T07:04:39.886Z,17.08
2018-05-08T07:07:08.329Z,16.91
2018-05-08T07:09:37.534Z,16.73
2018-05-08T07:12:06.027Z,17.45
2018-05-08T07:14:34.467Z,17.10
2018-05-08T07:17:03.692Z,17.61
2018-05-08T07:19:32.925Z,17.57
2018-05-08T07:22:02.121Z,17.28
2018-05-08T07:24:30.631Z,17.06
2018-05-08T07:26:59.329Z,17.17
2018-05-08T07:29:27.784Z,17.12
2018-05-08T07:31:56.203Z,17.19
2018-05-08T07:34:24.901Z,17.37
2018-05-08T07:36:53.603Z,17.25
2018-05-08T07:39:22.091Z,17.26
2018-05-08T07:41:51.533Z,17.61
2018-05-08T07:44:19.981Z,18.92
2018-05-08T07:46:48.420Z,18.80
2018-05-08T07:49:17.649Z,18.07
2018-05-08T07:51:46.132Z,18.13
2018-05-08T07:54:15.328Z,17.81
2018-05-08T07:56:43.769Z,18.52
2018-05-08T07:59:12.229Z,18.56
2018-05-08T08:01:40.873Z,18.29
2018-05-08T08:04:09.316Z,18.18
2018-05-08T08:06:37.724Z,19.02
2018-05-08T08:09:06.167Z,18.83
2018-05-08T08:11:34.588Z,18.83
2018-05-08T08:14:03.061Z,19.10
2018-05-08T08:16:31.490Z,19.15
2018-05-08T08:18:59.977Z,19.52
2018-05-08T08:21:28.404Z,19.89
2018-05-08T08:23:57.739Z,20.50
2018-05-08T08:26:26.150Z,19.74
2018-05-08T08:28:54.613Z,19.91
2018-05-08T08:31:23.055Z,20.58
2018-05-08T08:33:51.511Z,20.16
2018-05-08T08:36:20.179Z,20.26
2018-05-08T08:38:48.618Z,20.68
2018-05-08T08:41:17.058Z,20.00
2018-05-08T08:43:45.496Z,20.98
2018-05-08T08:46:13.926Z,20.78
2018-05-08T08:48:42.375Z,20.22
2018-05-08T08:51:10.845Z,20.28
2018-05-08T08:53:39.343Z,20.33
2018-05-08T08:56:07.858Z,21.12
2018-05-08T08:58:36.254Z,21.45
2018-05-08T09:01:04.665Z,21.66
2018-05-08T09:03:33.118Z,22.11
2018-05-08T09:06:01.529Z,21.69
2018-05-08T09:08:30.002Z,21.17
2018-05-08T09:10:58.440Z,21.20
2018-05-08T09:13:26.930Z,21.48
2018-05-08T09:15:55.420Z,21.57
2018-05-08T09:18:23.894Z,21.63
2018-05-08T09:20:52.351Z,21.73
2018-05-08T09:23:20.845Z,22.21
2018-05-08T09:25:49.267Z,22.85
2018-05-08T09:28:17.706Z,22.45
2018-05-08T09:30:46.894Z,22.41
2018-05-08T09:33:15.330Z,22.26
2018-05-08T09:35:44.582Z,23.36
2018-05-08T09:38:13.052Z,22.50
2018-05-08T09:40:42.356Z,22.24
2018-05-08T09:43:10.833Z,22.37
2018-05-08T09:45:39.267Z,22.69
2018-05-08T09:48:07.725Z,23.04
2018-05-08T09:50:36.169Z,22.78
2018-05-08T09:53:04.659Z,23.24
2018-05-08T09:55:33.124Z,22.92
2018-05-08T09:58:01.646Z,23.42
2018-05-08T10:00:30.923Z,23.77
2018-05-08T10:02:59.435Z,23.49
2018-05-08T10:05:27.896Z,24.00
2018-05-08T10:07:56.381Z,24.42
2018-05-08T10:10:25.651Z,24.43
2018-05-08T10:12:54.363Z,24.00
2018-05-08T10:15:22.801Z,24.03
2018-05-08T10:17:51.315Z,24.46
2018-05-08T10:20:19.759Z,24.13
2018-05-08T10:22:48.222Z,24.20
2018-05-08T10:25:16.713Z,24.28
2018-05-08T10:27:45.946Z,24.37
2018-05-08T10:30:14.365Z,24.54
2018-05-08T10:32:42.806Z,24.65
2018-05-08T10:35:11.250Z,24.97
2018-05-08T10:37:39.699Z,24.63
2018-05-08T10:40:08.926Z,24.51
2018-05-08T10:42:37.450Z,24.79
2018-05-08T10:45:06.619Z,24.97
2018-05-08T10:47:35.122Z,25.36
2018-05-08T10:50:03.563Z,25.04
2018-05-08T10:52:32.059Z,25.06
2018-05-08T10:55:01.312Z,25.08
2018-05-08T10:57:29.884Z,25.48
2018-05-08T10:59:58.713Z,25.61
2018-05-08T11:02:27.251Z,25.34
2018-05-08T11:04:55.705Z,25.50
2018-05-08T11:07:24.932Z,25.35
2018-05-08T11:09:55.089Z,25.60
2018-05-08T11:12:24.341Z,25.54
2018-05-08T11:14:52.774Z,25.53
2018-05-08T11:17:21.227Z,25.58
2018-05-08T11:19:49.767Z,25.49
2018-05-08T11:22:18.201Z,25.71
2018-05-08T11:24:46.727Z,25.65
2018-05-08T11:27:15.203Z,25.64
2018-05-08T11:29:43.677Z,25.81
2018-05-08T11:32:12.936Z,25.91
2018-05-08T11:34:41.382Z,25.97
2018-05-08T11:37:10.629Z,26.09
2018-05-08T11:39:39.098Z,25.98
2018-05-08T11:42:07.593Z,26.28
2018-05-08T11:44:36.520Z,26.12
2018-05-08T11:47:05.041Z,26.37
2018-05-08T11:49:36.272Z,26.34
2018-05-08T11:52:04.876Z,26.54
2018-05-08T11:54:33.423Z,26.35
2018-05-08T11:57:01.965Z,26.82
2018-05-08T11:59:30.489Z,26.80
2018-05-08T12:01:58.967Z,26.68
2018-05-08T12:04:27.439Z,26.67
2018-05-08T12:06:55.896Z,26.66
2018-05-08T12:09:24.321Z,26.50
2018-05-08T12:11:52.775Z,26.90
2018-05-08T12:14:21.225Z,26.59
2018-05-08T12:16:49.690Z,27.01
2018-05-08T12:19:18.211Z,27.04
2018-05-08T12:21:46.728Z,27.07
2018-05-08T12:24:15.172Z,26.89
2018-05-08T12:26:43.623Z,27.00
2018-05-08T12:29:12.081Z,27.23
2018-05-08T12:31:40.591Z,27.21
2018-05-08T12:34:09.059Z,27.19
2018-05-08T12:36:37.533Z,27.29
2018-05-08T12:39:06.893Z,27.61
2018-05-08T12:41:35.375Z,27.47
2018-05-08T12:44:03.867Z,27.34
2018-05-08T12:46:32.288Z,27.62
2018-05-08T12:49:00.817Z,27.56
2018-05-08T12:51:29.316Z,27.41
2018-05-08T12:53:57.743Z,27.66
2018-05-08T12:56:26.229Z,27.86
2018-05-08T12:58:55.170Z,28.27
2018-05-08T13:01:23.613Z,28.02
2018-05-08T13:03:52.050Z,27.96
2018-05-08T13:06:20.488Z,27.81
2018-05-08T13:08:48.956Z,28.14
2018-05-08T13:11:17.398Z,28.25
2018-05-08T13:13:45.900Z,28.07
2018-05-08T13:16:14.423Z,28.11
2018-05-08T13:18:42.902Z,27.86
2018-05-08T13:21:11.470Z,28.22
2018-05-08T13:23:40.738Z,28.25
2018-05-08T13:26:09.249Z,28.08
2018-05-08T13:28:37.761Z,28.26
2018-05-08T13:31:06.304Z,28.16
2018-05-08T13:33:34.822Z,28.21
2018-05-08T13:36:03.300Z,28.14
2018-05-08T13:38:31.780Z,27.99
2018-05-08T13:41:00.227Z,28.14
2018-05-08T13:43:29.430Z,28.18
2018-05-08T13:45:57.918Z,28.45
2018-05-08T13:48:26.636Z,28.97
2018-05-08T13:50:55.121Z,29.29
2018-05-08T13:53:23.583Z,28.76
2018-05-08T13:55:52.058Z,28.46
2018-05-08T13:58:20.528Z,28.65
2018-05-08T14:00:48.975Z,28.55
2018-05-08T14:03:17.408Z,28.77
2018-05-08T14:05:46.750Z,28.95
2018-05-08T14:08:15.190Z,29.08
2018-05-08T14:10:43.640Z,28.90
2018-05-08T14:13:12.842Z,28.61
2018-05-08T14:15:41.286Z,28.69
2018-05-08T14:18:09.743Z,29.11
2018-05-08T14:20:38.192Z,28.75
2018-05-08T14:23:06.678Z,28.85
2018-05-08T14:25:35.128Z,29.26
2018-05-08T14:28:03.844Z,29.36
2018-05-08T14:30:32.377Z,29.38
2018-05-08T14:33:02.058Z,29.73
2018-05-08T14:35:31.756Z,29.56
2018-05-08T14:38:00.336Z,29.33
2018-05-08T14:40:28.797Z,29.35
2018-05-08T14:42:57.246Z,29.74
2018-05-08T14:45:25.726Z,29.71
2018-05-08T14:47:54.179Z,29.58
2018-05-08T14:50:22.626Z,29.83
2018-05-08T14:52:51.098Z,30.16
2018-05-08T14:55:19.924Z,30.37
2018-05-08T14:57:48.414Z,30.10
2018-05-08T15:00:16.870Z,30.28
2018-05-08T15:02:45.332Z,29.85
2018-05-08T15:05:13.772Z,30.20
2018-05-08T15:07:42.253Z,30.39
2018-05-08T15:10:10.689Z,30.50
2018-05-08T15:12:39.147Z,29.81
2018-05-08T15:15:07.603Z,29.58
2018-05-08T15:17:36.057Z,29.50
2018-05-08T15:20:04.749Z,29.59
2018-05-08T15:22:33.314Z,29.39
2018-05-08T15:25:01.854Z,29.56
2018-05-08T15:27:30.342Z,29.80
2018-05-08T15:30:00.496Z,29.82
2018-05-08T15:32:29.038Z,29.90
2018-05-08T15:34:57.778Z,29.97
2018-05-08T15:37:26.284Z,29.19
2018-05-08T15:39:55.470Z,29.09
2018-05-08T15:42:24.051Z,29.59
2018-05-08T15:44:52.495Z,29.81
2018-05-08T15:47:21.833Z,29.39
2018-05-08T15:49:50.419Z,29.72
2018-05-08T15:52:18.905Z,29.40
2018-05-08T15:54:47.383Z,29.39
2018-05-08T15:57:15.846Z,29.31
2018-05-08T15:59:44.373Z,29.50
2018-05-08T16:02:12.918Z,29.54
2018-05-08T16:04:41.469Z,28.91
2018-05-08T16:07:10.004Z,28.86
2018-05-08T16:09:38.547Z,29.08
2018-05-08T16:12:07.093Z,28.94
2018-05-08T16:14:36.247Z,29.31
2018-05-08T16:17:04.768Z,29.19
2018-05-08T16:19:33.714Z,28.96
2018-05-08T16:22:02.189Z,29.13
2018-05-08T16:24:31.629Z,29.21
2018-05-08T16:27:00.182Z,29.10
2018-05-08T16:29:30.376Z,28.96
2018-05-08T16:31:58.886Z,28.88
2018-05-08T16:34:28.259Z,28.46
2018-05-08T16:36:57.493Z,28.42
2018-05-08T16:39:25.988Z,28.65
2018-05-08T16:41:54.787Z,28.58
2018-05-08T16:44:23.288Z,28.48
2018-05-08T16:46:51.742Z,28.28
2018-05-08T16:49:20.279Z,28.34
2018-05-08T16:51:48.812Z,28.35
2018-05-08T16:54:17.339Z,28.45
2018-05-08T16:56:45.849Z,28.76
2018-05-08T16:59:14.341Z,28.37
2018-05-08T17:01:42.890Z,28.37
2018-05-08T17:04:11.382Z,28.15
2018-05-08T17:06:39.967Z,28.16
2018-05-08T17:09:08.609Z,28.27
2018-05-08T17:11:37.148Z,28.39
2018-05-08T17:14:05.581Z,28.28
2018-05-08T17:16:34.118Z,28.30
2018-05-08T17:19:02.959Z,28.35
2018-05-08T17:21:31.473Z,28.11
2018-05-08T17:24:00.454Z,27.81
2018-05-08T17:26:29.481Z,27.78
2018-05-08T17:29:00.024Z,27.65
2018-05-08T17:31:31.170Z,27.62
2018-05-08T17:33:59.756Z,27.13
2018-05-08T17:36:28.258Z,27.43
2018-05-08T17:38:56.718Z,27.55
2018-05-08T17:41:25.312Z,26.97
2018-05-08T17:43:53.824Z,26.98
2018-05-08T17:46:22.287Z,26.96
2018-05-08T17:48:50.765Z,26.80
2018-05-08T17:51:19.791Z,26.75
2018-05-08T17:53:48.282Z,26.79
2018-05-08T17:56:16.761Z,26.51
2018-05-08T17:58:45.231Z,26.73
2018-05-08T18:01:13.678Z,26.72
2018-05-08T18:03:42.341Z,26.52
2018-05-08T18:06:10.847Z,26.08
2018-05-08T18:08:39.322Z,25.98
2018-05-08T18:11:07.788Z,26.12
2018-05-08T18:13:36.250Z,25.76
2018-05-08T18:16:04.752Z,25.88
2018-05-08T18:18:33.411Z,26.21
2018-05-08T18:21:05.639Z,25.88
2018-05-08T18:23:36.199Z,25.63
2018-05-08T18:26:04.759Z,25.38
2018-05-08T18:28:34.615Z,25.52
2018-05-08T18:31:03.221Z,25.49
2018-05-08T18:33:31.797Z,25.60
2018-05-08T18:36:02.075Z,25.34
2018-05-08T18:38:31.946Z,25.37
2018-05-08T18:41:06.765Z,25.11
2018-05-08T18:43:50.499Z,25.14
2018-05-08T18:46:19.918Z,25.02
2018-05-08T18:48:48.715Z,24.32
2018-05-08T18:51:18.784Z,24.45
2018-05-08T18:53:47.433Z,24.98
2018-05-08T19:21:10.021Z,24.81
2018-05-08T20:20:28.526Z,22.28
2018-05-08T20:23:00.145Z,22.17
2018-05-08T20:25:31.082Z,22.08
2018-05-08T20:28:17.159Z,22.13
2018-05-08T20:35:19.526Z,21.87
2018-05-08T20:37:49.176Z,21.96
2018-05-08T20:40:18.241Z,22.00
2018-05-08T20:42:48.796Z,21.98
2018-05-08T20:45:20.653Z,22.07
2018-05-08T20:47:49.118Z,22.05
2018-05-08T20:50:17.914Z,21.75
2018-05-08T20:52:46.404Z,21.83
2018-05-08T20:55:25.060Z,21.45
2018-05-08T20:57:54.696Z,21.37
2018-05-08T21:00:23.797Z,21.38
2018-05-08T21:02:52.487Z,21.36
2018-05-08T21:05:23.413Z,21.28
2018-05-08T21:08:08.532Z,21.75
2018-05-08T21:15:49.943Z,22.56
2018-05-08T21:18:21.436Z,21.93
2018-05-08T21:20:50.701Z,21.75
2018-05-08T21:23:19.434Z,21.24
2018-05-08T21:25:52.053Z,20.39
2018-05-08T21:28:26.455Z,20.48
2018-05-08T21:33:34.211Z,20.19
2018-05-08T21:36:03.690Z,20.19
2018-05-08T21:38:35.486Z,19.85
2018-05-08T21:41:04.036Z,20.09
2018-05-08T21:43:34.318Z,20.47
2018-05-08T21:46:05.489Z,20.25
2018-05-08T21:48:34.035Z,20.20
2018-05-08T21:51:03.276Z,19.85
2018-05-08T21:53:33.992Z,20.31
2018-05-08T21:56:03.922Z,20.24
2018-05-08T21:58:33.868Z,20.56
2018-05-08T22:01:04.028Z,20.13
2018-05-08T22:03:33.297Z,20.47
2018-05-08T22:06:05.012Z,20.26
2018-05-08T22:08:33.566Z,21.32
2018-05-08T22:11:06.135Z,21.04
2018-05-08T22:13:34.744Z,20.02
2018-05-08T22:16:03.634Z,19.82
2018-05-08T22:18:33.414Z,19.15
2018-05-08T22:21:05.039Z,19.63
2018-05-08T22:23:35.511Z,19.58
2018-05-08T22:26:04.006Z,19.75
2018-05-08T22:28:33.090Z,19.44
2018-05-08T22:31:05.250Z,19.98
2018-05-08T22:33:33.809Z,20.17
2018-05-08T22:36:05.595Z,20.50
2018-05-08T22:38:34.143Z,20.56
2018-05-08T22:41:03.854Z,19.96
2018-05-08T22:43:34.223Z,20.60
2018-05-08T22:46:03.646Z,19.81
2018-05-08T22:48:35.205Z,19.35
2018-05-08T22:51:03.819Z,18.96
2018-05-08T22:53:34.139Z,18.50
2018-05-08T22:56:03.977Z,18.38
2018-05-08T22:58:34.410Z,19.08
2018-05-08T23:01:04.291Z,18.91
2018-05-08T23:03:34.147Z,19.36
2018-05-08T23:06:04.499Z,19.75
2018-05-08T23:08:34.439Z,19.47
2018-05-08T23:11:04.381Z,19.46
2018-05-08T23:13:34.762Z,18.67
2018-05-08T23:16:04.473Z,19.19
2018-05-08T23:18:34.653Z,18.24
2018-05-08T23:21:04.398Z,17.84
2018-05-08T23:23:34.286Z,17.86
2018-05-08T23:26:04.708Z,17.68
2018-05-08T23:28:33.999Z,17.52
2018-05-08T23:31:04.832Z,17.99
2018-05-08T23:33:33.563Z,17.97
2018-05-08T23:36:05.135Z,18.37
2018-05-08T23:38:34.778Z,18.76
2018-05-08T23:41:05.165Z,18.75
2018-05-08T23:43:34.419Z,18.70
2018-05-08T23:46:31.110Z,18.40
2018-05-08T23:49:19.624Z,18.47
2018-05-08T23:51:51.536Z,18.03
2018-05-08T23:54:32.179Z,18.46
2018-05-08T23:57:01.510Z,17.31
2018-05-08T23:59:31.286Z,16.92
